sensor_id;sensor_type;location;lat;lon;timestamp;P1;durP1;ratioP1;P2;durP2;ratioP2
40659;SDS011;26753;45.544;9.232;2022-11-15T00:01:09;32.65;;;21.40;;
40659;SDS011;26753;45.544;9.232;2022-11-15T00:03:42;34.47;;;20.80;;
40659;SDS011;26753;45.544;9.232;2022-11-15T00:06:14;32.45;;;20.85;;
40659;SDS011;26753;45.544;9.232;2022-11-15T00:08:59;32.80;;;19.88;;
40659;SDS011;26753;45.544;9.232;2022-11-15T00:11:29;33.83;;;21.00;;
40659;SDS011;26753;45.544;9.232;2022-11-15T00:13:55;34.90;;;22.15;;
40659;SDS011;26753;45.544;9.232;2022-11-15T00:16:27;33.20;;;21.27;;
40659;SDS011;26753;45.544;9.232;2022-11-15T00:18:54;32.83;;;20.90;;
40659;SDS011;26753;45.544;9.232;2022-11-15T00:21:24;33.40;;;21.55;;
40659;SDS011;26753;45.544;9.232;2022-11-15T00:24:05;36.28;;;21.92;;
40659;SDS011;26753;45.544;9.232;2022-11-15T00:26:34;35.25;;;22.00;;
40659;SDS011;26753;45.544;9.232;2022-11-15T00:29:12;39.90;;;23.35;;
40659;SDS011;26753;45.544;9.232;2022-11-15T00:31:41;36.85;;;22.45;;
40659;SDS011;26753;45.544;9.232;2022-11-15T00:34:08;35.92;;;22.80;;
40659;SDS011;26753;45.544;9.232;2022-11-15T00:36:35;35.22;;;22.25;;
40659;SDS011;26753;45.544;9.232;2022-11-15T00:39:03;39.08;;;23.08;;
40659;SDS011;26753;45.544;9.232;2022-11-15T00:41:30;36.45;;;22.98;;
40659;SDS011;26753;45.544;9.232;2022-11-15T00:43:56;33.53;;;22.58;;
40659;SDS011;26753;45.544;9.232;2022-11-15T00:46:23;41.50;;;22.55;;
40659;SDS011;26753;45.544;9.232;2022-11-15T00:48:49;34.50;;;22.67;;
40659;SDS011;26753;45.544;9.232;2022-11-15T00:51:15;38.72;;;22.35;;
40659;SDS011;26753;45.544;9.232;2022-11-15T00:53:41;32.55;;;22.05;;
40659;SDS011;26753;45.544;9.232;2022-11-15T00:56:09;33.75;;;21.63;;
40659;SDS011;26753;45.544;9.232;2022-11-15T00:58:49;34.30;;;21.35;;
40659;SDS011;26753;45.544;9.232;2022-11-15T01:01:21;30.05;;;20.35;;
40659;SDS011;26753;45.544;9.232;2022-11-15T01:03:47;33.50;;;21.00;;
40659;SDS011;26753;45.544;9.232;2022-11-15T01:06:13;30.23;;;20.15;;
40659;SDS011;26753;45.544;9.232;2022-11-15T01:08:39;28.33;;;19.27;;
40659;SDS011;26753;45.544;9.232;2022-11-15T01:11:07;36.17;;;19.80;;
40659;SDS011;26753;45.544;9.232;2022-11-15T01:13:36;31.80;;;19.95;;
40659;SDS011;26753;45.544;9.232;2022-11-15T01:16:08;32.70;;;18.88;;
40659;SDS011;26753;45.544;9.232;2022-11-15T01:18:36;33.67;;;20.37;;
40659;SDS011;26753;45.544;9.232;2022-11-15T01:21:20;29.48;;;19.20;;
40659;SDS011;26753;45.544;9.232;2022-11-15T01:23:47;31.38;;;19.65;;
40659;SDS011;26753;45.544;9.232;2022-11-15T01:26:13;31.25;;;19.90;;
40659;SDS011;26753;45.544;9.232;2022-11-15T01:28:40;30.85;;;19.48;;
40659;SDS011;26753;45.544;9.232;2022-11-15T01:31:09;29.35;;;19.73;;
40659;SDS011;26753;45.544;9.232;2022-11-15T01:33:43;29.52;;;18.63;;
40659;SDS011;26753;45.544;9.232;2022-11-15T01:36:11;27.92;;;18.90;;
40659;SDS011;26753;45.544;9.232;2022-11-15T01:38:39;31.85;;;20.02;;
40659;SDS011;26753;45.544;9.232;2022-11-15T01:41:04;28.60;;;19.20;;
40659;SDS011;26753;45.544;9.232;2022-11-15T01:43:32;30.52;;;19.60;;
40659;SDS011;26753;45.544;9.232;2022-11-15T01:48:32;30.00;;;19.05;;
40659;SDS011;26753;45.544;9.232;2022-11-15T01:51:06;31.92;;;18.90;;
40659;SDS011;26753;45.544;9.232;2022-11-15T01:56:02;30.25;;;18.20;;
40659;SDS011;26753;45.544;9.232;2022-11-15T01:58:29;32.17;;;18.75;;
40659;SDS011;26753;45.544;9.232;2022-11-15T02:00:56;31.08;;;18.75;;
40659;SDS011;26753;45.544;9.232;2022-11-15T02:03:26;32.10;;;18.95;;
40659;SDS011;26753;45.544;9.232;2022-11-15T02:06:32;30.13;;;18.95;;
40659;SDS011;26753;45.544;9.232;2022-11-15T02:08:59;27.52;;;18.75;;
40659;SDS011;26753;45.544;9.232;2022-11-15T02:11:29;29.02;;;18.83;;
40659;SDS011;26753;45.544;9.232;2022-11-15T02:13:55;32.70;;;19.33;;
40659;SDS011;26753;45.544;9.232;2022-11-15T02:16:28;29.80;;;18.63;;
40659;SDS011;26753;45.544;9.232;2022-11-15T02:21:39;30.45;;;19.02;;
40659;SDS011;26753;45.544;9.232;2022-11-15T02:27:05;29.35;;;18.70;;
40659;SDS011;26753;45.544;9.232;2022-11-15T02:33:02;30.15;;;19.38;;
40659;SDS011;26753;45.544;9.232;2022-11-15T02:35:52;38.50;;;23.77;;
40659;SDS011;26753;45.544;9.232;2022-11-15T02:38:40;32.00;;;19.95;;
40659;SDS011;26753;45.544;9.232;2022-11-15T02:41:25;30.60;;;19.77;;
40659;SDS011;26753;45.544;9.232;2022-11-15T02:44:15;32.45;;;20.23;;
40659;SDS011;26753;45.544;9.232;2022-11-15T02:49:41;32.35;;;20.30;;
40659;SDS011;26753;45.544;9.232;2022-11-15T02:52:19;32.85;;;20.30;;
40659;SDS011;26753;45.544;9.232;2022-11-15T02:54:59;30.70;;;19.48;;
40659;SDS011;26753;45.544;9.232;2022-11-15T03:00:23;31.65;;;19.92;;
40659;SDS011;26753;45.544;9.232;2022-11-15T03:13:39;29.48;;;18.48;;
40659;SDS011;26753;45.544;9.232;2022-11-15T03:19:06;28.95;;;17.73;;
40659;SDS011;26753;45.544;9.232;2022-11-15T03:24:00;26.77;;;17.90;;
40659;SDS011;26753;45.544;9.232;2022-11-15T03:26:30;28.90;;;17.65;;
40659;SDS011;26753;45.544;9.232;2022-11-15T03:28:59;28.50;;;18.05;;
40659;SDS011;26753;45.544;9.232;2022-11-15T03:31:28;28.90;;;18.60;;
40659;SDS011;26753;45.544;9.232;2022-11-15T03:37:37;32.28;;;18.27;;
40659;SDS011;26753;45.544;9.232;2022-11-15T03:40:26;26.58;;;17.65;;
40659;SDS011;26753;45.544;9.232;2022-11-15T03:45:56;28.33;;;18.15;;
40659;SDS011;26753;45.544;9.232;2022-11-15T03:48:34;27.23;;;17.75;;
40659;SDS011;26753;45.544;9.232;2022-11-15T03:51:05;30.23;;;18.08;;
40659;SDS011;26753;45.544;9.232;2022-11-15T03:53:31;28.60;;;18.17;;
40659;SDS011;26753;45.544;9.232;2022-11-15T03:55:57;28.90;;;18.13;;
40659;SDS011;26753;45.544;9.232;2022-11-15T03:58:23;26.98;;;17.10;;
40659;SDS011;26753;45.544;9.232;2022-11-15T04:00:49;26.75;;;17.52;;
40659;SDS011;26753;45.544;9.232;2022-11-15T04:03:15;29.13;;;17.17;;
40659;SDS011;26753;45.544;9.232;2022-11-15T04:05:41;29.52;;;17.90;;
40659;SDS011;26753;45.544;9.232;2022-11-15T04:08:07;27.77;;;17.38;;
40659;SDS011;26753;45.544;9.232;2022-11-15T04:10:33;26.58;;;17.40;;
40659;SDS011;26753;45.544;9.232;2022-11-15T04:12:59;26.40;;;17.40;;
40659;SDS011;26753;45.544;9.232;2022-11-15T04:15:29;24.83;;;17.10;;
40659;SDS011;26753;45.544;9.232;2022-11-15T04:17:56;26.63;;;16.75;;
40659;SDS011;26753;45.544;9.232;2022-11-15T04:20:23;29.10;;;18.42;;
40659;SDS011;26753;45.544;9.232;2022-11-15T04:23:12;27.00;;;17.27;;
40659;SDS011;26753;45.544;9.232;2022-11-15T04:25:58;28.17;;;17.83;;
40659;SDS011;26753;45.544;9.232;2022-11-15T04:28:26;28.60;;;17.58;;
40659;SDS011;26753;45.544;9.232;2022-11-15T04:30:55;26.65;;;17.10;;
40659;SDS011;26753;45.544;9.232;2022-11-15T04:33:21;27.23;;;17.50;;
40659;SDS011;26753;45.544;9.232;2022-11-15T04:35:48;27.92;;;17.90;;
40659;SDS011;26753;45.544;9.232;2022-11-15T04:38:34;28.58;;;17.38;;
40659;SDS011;26753;45.544;9.232;2022-11-15T04:41:00;28.02;;;17.75;;
40659;SDS011;26753;45.544;9.232;2022-11-15T04:43:27;26.15;;;17.30;;
40659;SDS011;26753;45.544;9.232;2022-11-15T04:45:53;26.98;;;16.90;;
40659;SDS011;26753;45.544;9.232;2022-11-15T04:48:19;27.40;;;16.85;;
40659;SDS011;26753;45.544;9.232;2022-11-15T04:50:47;31.05;;;18.70;;
40659;SDS011;26753;45.544;9.232;2022-11-15T04:53:14;27.33;;;17.75;;
40659;SDS011;26753;45.544;9.232;2022-11-15T04:55:39;28.13;;;17.15;;
40659;SDS011;26753;45.544;9.232;2022-11-15T04:58:06;27.75;;;17.42;;
40659;SDS011;26753;45.544;9.232;2022-11-15T05:00:34;32.05;;;17.73;;
40659;SDS011;26753;45.544;9.232;2022-11-15T05:03:01;29.67;;;17.67;;
40659;SDS011;26753;45.544;9.232;2022-11-15T05:05:45;30.10;;;17.67;;
40659;SDS011;26753;45.544;9.232;2022-11-15T05:08:10;27.00;;;17.30;;
40659;SDS011;26753;45.544;9.232;2022-11-15T05:10:39;29.15;;;17.58;;
40659;SDS011;26753;45.544;9.232;2022-11-15T05:13:08;32.50;;;17.75;;
40659;SDS011;26753;45.544;9.232;2022-11-15T05:15:34;27.35;;;17.45;;
40659;SDS011;26753;45.544;9.232;2022-11-15T05:18:00;27.77;;;17.40;;
40659;SDS011;26753;45.544;9.232;2022-11-15T05:20:26;27.70;;;17.48;;
40659;SDS011;26753;45.544;9.232;2022-11-15T05:22:52;26.50;;;17.42;;
40659;SDS011;26753;45.544;9.232;2022-11-15T05:25:20;29.35;;;17.85;;
40659;SDS011;26753;45.544;9.232;2022-11-15T05:27:46;26.60;;;16.67;;
40659;SDS011;26753;45.544;9.232;2022-11-15T05:30:15;26.85;;;16.60;;
40659;SDS011;26753;45.544;9.232;2022-11-15T05:32:41;26.25;;;17.05;;
40659;SDS011;26753;45.544;9.232;2022-11-15T05:35:08;34.88;;;20.27;;
40659;SDS011;26753;45.544;9.232;2022-11-15T05:37:45;27.30;;;16.42;;
40659;SDS011;26753;45.544;9.232;2022-11-15T05:40:14;26.25;;;16.35;;
40659;SDS011;26753;45.544;9.232;2022-11-15T05:42:40;27.05;;;16.73;;
40659;SDS011;26753;45.544;9.232;2022-11-15T05:45:06;27.65;;;16.25;;
40659;SDS011;26753;45.544;9.232;2022-11-15T05:47:32;24.52;;;15.88;;
40659;SDS011;26753;45.544;9.232;2022-11-15T05:50:00;26.58;;;15.70;;
40659;SDS011;26753;45.544;9.232;2022-11-15T05:52:28;29.73;;;17.10;;
40659;SDS011;26753;45.544;9.232;2022-11-15T05:54:59;24.92;;;16.48;;
40659;SDS011;26753;45.544;9.232;2022-11-15T05:57:26;26.90;;;16.52;;
40659;SDS011;26753;45.544;9.232;2022-11-15T05:59:52;27.80;;;17.20;;
40659;SDS011;26753;45.544;9.232;2022-11-15T06:02:19;27.88;;;17.73;;
40659;SDS011;26753;45.544;9.232;2022-11-15T06:04:45;28.13;;;17.52;;
40659;SDS011;26753;45.544;9.232;2022-11-15T06:07:11;28.67;;;17.48;;
40659;SDS011;26753;45.544;9.232;2022-11-15T06:09:37;27.48;;;16.70;;
40659;SDS011;26753;45.544;9.232;2022-11-15T06:12:03;27.88;;;17.65;;
40659;SDS011;26753;45.544;9.232;2022-11-15T06:14:29;26.35;;;17.73;;
40659;SDS011;26753;45.544;9.232;2022-11-15T06:16:55;25.10;;;17.20;;
40659;SDS011;26753;45.544;9.232;2022-11-15T06:19:21;27.70;;;17.50;;
40659;SDS011;26753;45.544;9.232;2022-11-15T06:21:46;26.52;;;17.52;;
40659;SDS011;26753;45.544;9.232;2022-11-15T06:24:12;28.98;;;17.98;;
40659;SDS011;26753;45.544;9.232;2022-11-15T06:26:38;30.13;;;17.60;;
40659;SDS011;26753;45.544;9.232;2022-11-15T06:29:04;26.85;;;16.92;;
40659;SDS011;26753;45.544;9.232;2022-11-15T06:31:30;25.58;;;16.85;;
40659;SDS011;26753;45.544;9.232;2022-11-15T06:33:59;27.80;;;17.33;;
40659;SDS011;26753;45.544;9.232;2022-11-15T06:36:25;28.52;;;17.70;;
40659;SDS011;26753;45.544;9.232;2022-11-15T06:38:51;30.67;;;17.70;;
40659;SDS011;26753;45.544;9.232;2022-11-15T06:41:17;28.92;;;17.65;;
40659;SDS011;26753;45.544;9.232;2022-11-15T06:43:43;28.02;;;17.30;;
40659;SDS011;26753;45.544;9.232;2022-11-15T06:46:09;27.35;;;17.65;;
40659;SDS011;26753;45.544;9.232;2022-11-15T06:48:35;25.90;;;17.45;;
40659;SDS011;26753;45.544;9.232;2022-11-15T06:51:02;27.92;;;16.60;;
40659;SDS011;26753;45.544;9.232;2022-11-15T06:53:29;26.77;;;16.65;;
40659;SDS011;26753;45.544;9.232;2022-11-15T06:55:59;25.23;;;16.38;;
40659;SDS011;26753;45.544;9.232;2022-11-15T06:58:29;25.70;;;16.25;;
40659;SDS011;26753;45.544;9.232;2022-11-15T07:00:59;23.73;;;15.83;;
40659;SDS011;26753;45.544;9.232;2022-11-15T07:03:25;24.13;;;16.30;;
40659;SDS011;26753;45.544;9.232;2022-11-15T07:05:55;24.70;;;15.60;;
40659;SDS011;26753;45.544;9.232;2022-11-15T07:08:22;23.15;;;15.02;;
40659;SDS011;26753;45.544;9.232;2022-11-15T07:10:50;24.60;;;14.43;;
40659;SDS011;26753;45.544;9.232;2022-11-15T07:13:17;23.73;;;14.80;;
40659;SDS011;26753;45.544;9.232;2022-11-15T07:15:52;25.13;;;15.23;;
40659;SDS011;26753;45.544;9.232;2022-11-15T07:18:39;27.65;;;15.93;;
40659;SDS011;26753;45.544;9.232;2022-11-15T07:21:08;28.15;;;15.95;;
40659;SDS011;26753;45.544;9.232;2022-11-15T07:23:37;22.67;;;15.27;;
40659;SDS011;26753;45.544;9.232;2022-11-15T07:26:03;25.83;;;15.65;;
40659;SDS011;26753;45.544;9.232;2022-11-15T07:28:32;23.30;;;15.30;;
40659;SDS011;26753;45.544;9.232;2022-11-15T07:31:08;26.73;;;15.75;;
40659;SDS011;26753;45.544;9.232;2022-11-15T07:36:35;23.15;;;15.27;;
40659;SDS011;26753;45.544;9.232;2022-11-15T07:39:06;27.02;;;15.35;;
40659;SDS011;26753;45.544;9.232;2022-11-15T07:41:32;26.00;;;15.85;;
40659;SDS011;26753;45.544;9.232;2022-11-15T07:44:03;27.45;;;16.60;;
40659;SDS011;26753;45.544;9.232;2022-11-15T07:46:29;26.15;;;16.60;;
40659;SDS011;26753;45.544;9.232;2022-11-15T07:48:56;28.20;;;16.90;;
40659;SDS011;26753;45.544;9.232;2022-11-15T07:51:22;28.98;;;16.52;;
40659;SDS011;26753;45.544;9.232;2022-11-15T07:53:48;26.05;;;16.08;;
40659;SDS011;26753;45.544;9.232;2022-11-15T07:56:14;28.55;;;16.75;;
40659;SDS011;26753;45.544;9.232;2022-11-15T07:58:40;30.20;;;17.35;;
40659;SDS011;26753;45.544;9.232;2022-11-15T08:01:07;29.25;;;17.70;;
40659;SDS011;26753;45.544;9.232;2022-11-15T08:03:34;28.40;;;17.38;;
40659;SDS011;26753;45.544;9.232;2022-11-15T08:06:00;29.20;;;16.48;;
40659;SDS011;26753;45.544;9.232;2022-11-15T08:08:26;28.52;;;17.70;;
40659;SDS011;26753;45.544;9.232;2022-11-15T08:10:52;32.58;;;18.65;;
40659;SDS011;26753;45.544;9.232;2022-11-15T08:13:18;31.48;;;17.98;;
40659;SDS011;26753;45.544;9.232;2022-11-15T08:15:44;26.02;;;17.38;;
40659;SDS011;26753;45.544;9.232;2022-11-15T08:18:14;30.33;;;18.25;;
40659;SDS011;26753;45.544;9.232;2022-11-15T08:20:41;26.90;;;17.27;;
40659;SDS011;26753;45.544;9.232;2022-11-15T08:23:07;29.58;;;17.63;;
40659;SDS011;26753;45.544;9.232;2022-11-15T08:25:38;32.50;;;19.02;;
40659;SDS011;26753;45.544;9.232;2022-11-15T08:28:04;31.58;;;18.83;;
40659;SDS011;26753;45.544;9.232;2022-11-15T08:30:34;29.98;;;19.83;;
40659;SDS011;26753;45.544;9.232;2022-11-15T08:33:09;29.63;;;18.67;;
40659;SDS011;26753;45.544;9.232;2022-11-15T08:35:36;31.63;;;19.77;;
40659;SDS011;26753;45.544;9.232;2022-11-15T08:38:02;32.65;;;18.85;;
40659;SDS011;26753;45.544;9.232;2022-11-15T08:40:27;30.80;;;19.25;;
40659;SDS011;26753;45.544;9.232;2022-11-15T08:42:53;29.08;;;19.30;;
40659;SDS011;26753;45.544;9.232;2022-11-15T08:45:19;34.42;;;20.75;;
40659;SDS011;26753;45.544;9.232;2022-11-15T08:47:45;33.10;;;19.30;;
40659;SDS011;26753;45.544;9.232;2022-11-15T08:50:10;29.17;;;19.20;;
40659;SDS011;26753;45.544;9.232;2022-11-15T08:52:36;30.73;;;19.08;;
40659;SDS011;26753;45.544;9.232;2022-11-15T08:55:02;29.67;;;18.58;;
40659;SDS011;26753;45.544;9.232;2022-11-15T08:57:28;28.35;;;18.95;;
40659;SDS011;26753;45.544;9.232;2022-11-15T08:59:57;34.47;;;19.58;;
40659;SDS011;26753;45.544;9.232;2022-11-15T09:02:23;33.67;;;20.17;;
40659;SDS011;26753;45.544;9.232;2022-11-15T09:04:49;34.33;;;21.25;;
40659;SDS011;26753;45.544;9.232;2022-11-15T09:07:14;29.38;;;19.88;;
40659;SDS011;26753;45.544;9.232;2022-11-15T09:09:40;33.03;;;19.40;;
40659;SDS011;26753;45.544;9.232;2022-11-15T09:12:06;29.15;;;19.35;;
40659;SDS011;26753;45.544;9.232;2022-11-15T09:14:32;30.00;;;19.40;;
40659;SDS011;26753;45.544;9.232;2022-11-15T09:16:58;32.65;;;19.98;;
40659;SDS011;26753;45.544;9.232;2022-11-15T09:19:24;28.17;;;17.30;;
40659;SDS011;26753;45.544;9.232;2022-11-15T09:21:50;29.45;;;17.88;;
40659;SDS011;26753;45.544;9.232;2022-11-15T09:24:16;30.55;;;17.52;;
40659;SDS011;26753;45.544;9.232;2022-11-15T09:26:42;27.38;;;18.48;;
40659;SDS011;26753;45.544;9.232;2022-11-15T09:29:08;34.80;;;18.95;;
40659;SDS011;26753;45.544;9.232;2022-11-15T09:31:37;33.17;;;20.35;;
40659;SDS011;26753;45.544;9.232;2022-11-15T09:34:02;34.63;;;20.88;;
40659;SDS011;26753;45.544;9.232;2022-11-15T09:36:28;30.63;;;20.20;;
40659;SDS011;26753;45.544;9.232;2022-11-15T09:38:54;34.42;;;20.83;;
40659;SDS011;26753;45.544;9.232;2022-11-15T09:41:26;30.63;;;20.25;;
40659;SDS011;26753;45.544;9.232;2022-11-15T09:49:45;32.33;;;19.25;;
40659;SDS011;26753;45.544;9.232;2022-11-15T09:52:15;32.50;;;20.33;;
40659;SDS011;26753;45.544;9.232;2022-11-15T09:54:43;29.42;;;19.55;;
40659;SDS011;26753;45.544;9.232;2022-11-15T09:57:14;42.38;;;24.40;;
40659;SDS011;26753;45.544;9.232;2022-11-15T10:05:36;27.75;;;19.40;;
40659;SDS011;26753;45.544;9.232;2022-11-15T10:10:39;27.80;;;18.55;;
40659;SDS011;26753;45.544;9.232;2022-11-15T10:13:13;31.42;;;19.55;;
40659;SDS011;26753;45.544;9.232;2022-11-15T10:15:47;30.50;;;20.02;;
40659;SDS011;26753;45.544;9.232;2022-11-15T10:20:59;35.00;;;19.90;;
40659;SDS011;26753;45.544;9.232;2022-11-15T10:23:38;30.08;;;19.35;;
40659;SDS011;26753;45.544;9.232;2022-11-15T10:26:06;27.88;;;18.05;;
40659;SDS011;26753;45.544;9.232;2022-11-15T10:28:36;28.85;;;19.33;;
40659;SDS011;26753;45.544;9.232;2022-11-15T10:31:01;32.70;;;19.05;;
40659;SDS011;26753;45.544;9.232;2022-11-15T10:38:49;31.48;;;18.27;;
40659;SDS011;26753;45.544;9.232;2022-11-15T10:43:43;30.27;;;19.23;;
40659;SDS011;26753;45.544;9.232;2022-11-15T10:46:22;29.15;;;19.42;;
40659;SDS011;26753;45.544;9.232;2022-11-15T10:48:49;29.60;;;18.98;;
40659;SDS011;26753;45.544;9.232;2022-11-15T10:51:27;32.55;;;19.58;;
40659;SDS011;26753;45.544;9.232;2022-11-15T10:53:56;32.65;;;19.20;;
40659;SDS011;26753;45.544;9.232;2022-11-15T10:56:25;34.75;;;20.35;;
40659;SDS011;26753;45.544;9.232;2022-11-15T10:59:01;37.90;;;21.63;;
40659;SDS011;26753;45.544;9.232;2022-11-15T11:01:27;32.90;;;19.75;;
40659;SDS011;26753;45.544;9.232;2022-11-15T11:04:07;30.17;;;20.08;;
40659;SDS011;26753;45.544;9.232;2022-11-15T11:09:22;32.03;;;20.50;;
40659;SDS011;26753;45.544;9.232;2022-11-15T11:11:49;32.78;;;21.05;;
40659;SDS011;26753;45.544;9.232;2022-11-15T11:14:19;31.02;;;20.70;;
40659;SDS011;26753;45.544;9.232;2022-11-15T11:25:58;29.27;;;20.05;;
40659;SDS011;26753;45.544;9.232;2022-11-15T11:30:44;31.05;;;20.85;;
40659;SDS011;26753;45.544;9.232;2022-11-15T11:33:33;33.50;;;22.00;;
40659;SDS011;26753;45.544;9.232;2022-11-15T11:39:09;34.88;;;21.23;;
40659;SDS011;26753;45.544;9.232;2022-11-15T11:44:15;32.78;;;20.77;;
40659;SDS011;26753;45.544;9.232;2022-11-15T11:49:45;29.80;;;19.48;;
40659;SDS011;26753;45.544;9.232;2022-11-15T11:52:17;33.10;;;20.50;;
40659;SDS011;26753;45.544;9.232;2022-11-15T11:54:57;31.75;;;20.15;;
40659;SDS011;26753;45.544;9.232;2022-11-15T11:57:41;31.58;;;18.40;;
40659;SDS011;26753;45.544;9.232;2022-11-15T12:00:27;30.70;;;18.23;;
40659;SDS011;26753;45.544;9.232;2022-11-15T12:05:38;22.42;;;15.18;;
40659;SDS011;26753;45.544;9.232;2022-11-15T12:08:33;22.98;;;14.65;;
40659;SDS011;26753;45.544;9.232;2022-11-15T12:11:13;23.15;;;14.48;;
40659;SDS011;26753;45.544;9.232;2022-11-15T12:13:48;21.38;;;14.70;;
40659;SDS011;26753;45.544;9.232;2022-11-15T12:16:30;22.27;;;15.05;;
40659;SDS011;26753;45.544;9.232;2022-11-15T12:19:02;24.00;;;14.73;;
40659;SDS011;26753;45.544;9.232;2022-11-15T12:21:34;55.13;;;31.80;;
40659;SDS011;26753;45.544;9.232;2022-11-15T12:24:06;24.45;;;15.65;;
40659;SDS011;26753;45.544;9.232;2022-11-15T12:26:50;21.65;;;14.00;;
40659;SDS011;26753;45.544;9.232;2022-11-15T12:29:48;22.50;;;13.85;;
40659;SDS011;26753;45.544;9.232;2022-11-15T12:34:58;27.48;;;14.85;;
40659;SDS011;26753;45.544;9.232;2022-11-15T12:42:39;22.88;;;14.45;;
40659;SDS011;26753;45.544;9.232;2022-11-15T12:45:24;23.25;;;15.10;;
40659;SDS011;26753;45.544;9.232;2022-11-15T12:50:54;23.52;;;14.95;;
40659;SDS011;26753;45.544;9.232;2022-11-15T12:58:55;25.00;;;16.02;;
40659;SDS011;26753;45.544;9.232;2022-11-15T13:06:51;23.77;;;15.23;;
40659;SDS011;26753;45.544;9.232;2022-11-15T13:17:50;21.23;;;13.55;;
40659;SDS011;26753;45.544;9.232;2022-11-15T13:33:15;19.70;;;12.88;;
40659;SDS011;26753;45.544;9.232;2022-11-15T13:35:50;17.38;;;11.48;;
40659;SDS011;26753;45.544;9.232;2022-11-15T13:38:25;17.45;;;12.00;;
40659;SDS011;26753;45.544;9.232;2022-11-15T13:43:41;17.42;;;11.85;;
40659;SDS011;26753;45.544;9.232;2022-11-15T13:46:11;19.55;;;12.70;;
40659;SDS011;26753;45.544;9.232;2022-11-15T13:48:41;18.02;;;12.10;;
40659;SDS011;26753;45.544;9.232;2022-11-15T13:51:12;21.35;;;14.20;;
40659;SDS011;26753;45.544;9.232;2022-11-15T13:53:46;21.40;;;14.23;;
40659;SDS011;26753;45.544;9.232;2022-11-15T13:56:22;24.42;;;15.48;;
40659;SDS011;26753;45.544;9.232;2022-11-15T13:59:08;27.67;;;15.95;;
40659;SDS011;26753;45.544;9.232;2022-11-15T14:01:39;23.10;;;15.85;;
40659;SDS011;26753;45.544;9.232;2022-11-15T14:04:18;25.65;;;16.02;;
40659;SDS011;26753;45.544;9.232;2022-11-15T14:07:00;22.65;;;15.60;;
40659;SDS011;26753;45.544;9.232;2022-11-15T14:09:38;23.10;;;15.32;;
40659;SDS011;26753;45.544;9.232;2022-11-15T14:15:29;21.88;;;14.73;;
40659;SDS011;26753;45.544;9.232;2022-11-15T14:21:10;21.17;;;14.10;;
40659;SDS011;26753;45.544;9.232;2022-11-15T14:23:39;22.58;;;15.23;;
40659;SDS011;26753;45.544;9.232;2022-11-15T14:26:33;21.73;;;14.80;;
40659;SDS011;26753;45.544;9.232;2022-11-15T14:34:44;21.75;;;14.13;;
40659;SDS011;26753;45.544;9.232;2022-11-15T14:37:16;44.33;;;26.58;;
40659;SDS011;26753;45.544;9.232;2022-11-15T14:39:56;23.73;;;15.07;;
40659;SDS011;26753;45.544;9.232;2022-11-15T14:42:22;23.00;;;13.82;;
40659;SDS011;26753;45.544;9.232;2022-11-15T14:44:48;20.40;;;13.05;;
40659;SDS011;26753;45.544;9.232;2022-11-15T14:47:15;19.98;;;13.10;;
40659;SDS011;26753;45.544;9.232;2022-11-15T14:49:42;20.52;;;13.98;;
40659;SDS011;26753;45.544;9.232;2022-11-15T14:54:59;20.92;;;13.55;;
40659;SDS011;26753;45.544;9.232;2022-11-15T14:57:27;22.98;;;14.43;;
40659;SDS011;26753;45.544;9.232;2022-11-15T14:59:57;20.08;;;13.38;;
40659;SDS011;26753;45.544;9.232;2022-11-15T15:02:26;20.50;;;13.18;;
40659;SDS011;26753;45.544;9.232;2022-11-15T15:04:52;21.40;;;14.02;;
40659;SDS011;26753;45.544;9.232;2022-11-15T15:10:18;20.77;;;14.23;;
40659;SDS011;26753;45.544;9.232;2022-11-15T15:12:52;22.33;;;14.07;;
40659;SDS011;26753;45.544;9.232;2022-11-15T15:15:37;19.92;;;14.27;;
40659;SDS011;26753;45.544;9.232;2022-11-15T15:18:06;25.25;;;14.55;;
40659;SDS011;26753;45.544;9.232;2022-11-15T15:20:34;21.67;;;14.57;;
40659;SDS011;26753;45.544;9.232;2022-11-15T15:23:01;29.17;;;18.55;;
40659;SDS011;26753;45.544;9.232;2022-11-15T15:25:28;23.75;;;16.17;;
40659;SDS011;26753;45.544;9.232;2022-11-15T15:28:01;23.85;;;15.60;;
40659;SDS011;26753;45.544;9.232;2022-11-15T15:30:30;24.98;;;15.40;;
40659;SDS011;26753;45.544;9.232;2022-11-15T15:32:56;24.13;;;16.17;;
40659;SDS011;26753;45.544;9.232;2022-11-15T15:35:22;22.17;;;15.35;;
40659;SDS011;26753;45.544;9.232;2022-11-15T15:37:51;21.67;;;14.73;;
40659;SDS011;26753;45.544;9.232;2022-11-15T15:40:19;22.73;;;14.57;;
40659;SDS011;26753;45.544;9.232;2022-11-15T15:42:49;22.27;;;13.90;;
40659;SDS011;26753;45.544;9.232;2022-11-15T15:45:15;22.00;;;13.93;;
40659;SDS011;26753;45.544;9.232;2022-11-15T15:47:42;22.27;;;13.85;;
40659;SDS011;26753;45.544;9.232;2022-11-15T15:53:03;20.73;;;13.13;;
40659;SDS011;26753;45.544;9.232;2022-11-15T15:55:30;23.23;;;13.35;;
40659;SDS011;26753;45.544;9.232;2022-11-15T15:57:59;19.30;;;13.13;;
40659;SDS011;26753;45.544;9.232;2022-11-15T16:00:27;21.98;;;13.85;;
40659;SDS011;26753;45.544;9.232;2022-11-15T16:02:58;19.42;;;13.40;;
40659;SDS011;26753;45.544;9.232;2022-11-15T16:05:24;20.25;;;13.48;;
40659;SDS011;26753;45.544;9.232;2022-11-15T16:07:50;20.35;;;13.77;;
40659;SDS011;26753;45.544;9.232;2022-11-15T16:10:17;20.58;;;13.68;;
40659;SDS011;26753;45.544;9.232;2022-11-15T16:12:45;20.50;;;13.68;;
40659;SDS011;26753;45.544;9.232;2022-11-15T16:15:11;23.20;;;13.05;;
40659;SDS011;26753;45.544;9.232;2022-11-15T16:17:38;19.30;;;12.52;;
40659;SDS011;26753;45.544;9.232;2022-11-15T16:20:26;22.77;;;13.70;;
40659;SDS011;26753;45.544;9.232;2022-11-15T16:23:05;20.52;;;13.23;;
40659;SDS011;26753;45.544;9.232;2022-11-15T16:25:41;17.33;;;12.52;;
40659;SDS011;26753;45.544;9.232;2022-11-15T16:28:31;16.05;;;11.25;;
40659;SDS011;26753;45.544;9.232;2022-11-15T16:33:36;16.63;;;11.30;;
40659;SDS011;26753;45.544;9.232;2022-11-15T16:36:03;16.55;;;10.90;;
40659;SDS011;26753;45.544;9.232;2022-11-15T16:38:30;16.55;;;10.85;;
40659;SDS011;26753;45.544;9.232;2022-11-15T16:40:56;17.13;;;11.48;;
40659;SDS011;26753;45.544;9.232;2022-11-15T16:43:22;16.42;;;10.60;;
40659;SDS011;26753;45.544;9.232;2022-11-15T16:45:50;26.15;;;16.67;;
40659;SDS011;26753;45.544;9.232;2022-11-15T16:48:24;24.70;;;15.23;;
40659;SDS011;26753;45.544;9.232;2022-11-15T16:50:57;19.27;;;12.07;;
40659;SDS011;26753;45.544;9.232;2022-11-15T16:53:24;14.23;;;8.90;;
40659;SDS011;26753;45.544;9.232;2022-11-15T16:55:50;15.25;;;10.65;;
40659;SDS011;26753;45.544;9.232;2022-11-15T16:58:16;20.40;;;13.88;;
40659;SDS011;26753;45.544;9.232;2022-11-15T17:00:41;17.85;;;10.73;;
40659;SDS011;26753;45.544;9.232;2022-11-15T17:03:08;14.63;;;10.27;;
40659;SDS011;26753;45.544;9.232;2022-11-15T17:05:33;14.38;;;10.75;;
40659;SDS011;26753;45.544;9.232;2022-11-15T17:07:59;16.48;;;11.15;;
40659;SDS011;26753;45.544;9.232;2022-11-15T17:10:26;18.10;;;10.60;;
40659;SDS011;26753;45.544;9.232;2022-11-15T17:12:53;18.35;;;11.18;;
40659;SDS011;26753;45.544;9.232;2022-11-15T17:15:20;18.30;;;12.00;;
40659;SDS011;26753;45.544;9.232;2022-11-15T17:17:51;26.58;;;15.50;;
40659;SDS011;26753;45.544;9.232;2022-11-15T17:20:19;19.50;;;12.85;;
40659;SDS011;26753;45.544;9.232;2022-11-15T17:22:45;19.73;;;11.68;;